createdAt,value
2019-02-28T00:00:58.364Z,6.67
2019-02-28T00:03:27.029Z,6.07
2019-02-28T00:05:52.831Z,6.10
2019-02-28T00:08:19.897Z,6.43
2019-02-28T00:10:59.139Z,6.37
2019-02-28T00:13:26.201Z,7.43
2019-02-28T00:15:53.260Z,7.37
2019-02-28T00:18:20.350Z,5.77
2019-02-28T00:20:47.335Z,5.40
2019-02-28T00:23:14.307Z,6.03
2019-02-28T00:25:41.240Z,6.20
2019-02-28T00:28:08.192Z,5.43
2019-02-28T00:30:37.350Z,5.73
2019-02-28T00:33:02.116Z,5.27
2019-02-28T00:35:29.077Z,6.23
2019-02-28T00:37:56.637Z,5.70
2019-02-28T00:40:23.059Z,6.77
2019-02-28T00:42:50.859Z,5.60
2019-02-28T00:45:17.021Z,6.77
2019-02-28T00:47:44.177Z,5.50
2019-02-28T00:50:11.192Z,6.07
2019-02-28T00:52:38.276Z,6.43
2019-02-28T00:55:05.353Z,6.27
2019-02-28T00:57:32.343Z,5.80
2019-02-28T01:00:04.951Z,5.97
2019-02-28T01:02:26.453Z,6.37
2019-02-28T01:04:53.528Z,5.70
2019-02-28T01:07:20.562Z,6.97
2019-02-28T01:09:47.570Z,6.63
2019-02-28T01:12:18.710Z,7.23
2019-02-28T01:14:41.672Z,9.20
2019-02-28T01:17:08.678Z,8.17
2019-02-28T01:19:35.743Z,8.03
2019-02-28T01:22:02.883Z,7.53
2019-02-28T01:24:34.491Z,6.93
2019-02-28T01:26:56.998Z,5.80
2019-02-28T01:34:18.861Z,10.17
2019-02-28T01:36:48.563Z,7.90
2019-02-28T01:39:12.899Z,7.27
2019-02-28T01:41:42.333Z,7.30
2019-02-28T01:44:06.955Z,7.87
2019-02-28T01:46:33.961Z,5.83
2019-02-28T01:49:00.888Z,6.53
2019-02-28T01:51:27.798Z,5.43
2019-02-28T01:53:54.837Z,6.23
2019-02-28T01:56:21.808Z,6.87
2019-02-28T01:58:50.412Z,6.33
2019-02-28T02:01:15.898Z,6.30
2019-02-28T02:03:42.914Z,5.87
2019-02-28T02:06:09.903Z,6.70
2019-02-28T02:08:37.823Z,7.53
2019-02-28T02:11:03.919Z,7.80
2019-02-28T02:13:30.944Z,8.03
2019-02-28T02:15:57.910Z,8.37
2019-02-28T02:18:24.865Z,7.40
2019-02-28T02:20:52.513Z,7.57
2019-02-28T02:23:19.489Z,8.07
2019-02-28T02:25:46.411Z,7.70
2019-02-28T02:28:13.346Z,7.67
2019-02-28T02:30:40.352Z,7.47
2019-02-28T02:33:13.593Z,7.43
2019-02-28T02:35:34.270Z,7.40
2019-02-28T02:38:03.694Z,7.10
2019-02-28T02:40:28.259Z,7.60
2019-02-28T02:42:55.210Z,7.33
2019-02-28T02:45:22.141Z,7.00
2019-02-28T02:47:49.085Z,8.37
2019-02-28T02:50:16.042Z,8.53
2019-02-28T02:52:43.052Z,8.47
2019-02-28T02:55:10.026Z,8.17
2019-02-28T02:57:36.943Z,8.07
2019-02-28T03:00:05.564Z,8.13
2019-02-28T03:02:33.225Z,7.63
2019-02-28T03:04:59.519Z,8.50
2019-02-28T03:07:26.376Z,7.70
2019-02-28T03:09:53.355Z,8.27
2019-02-28T03:12:20.305Z,12.03
2019-02-28T03:14:48.689Z,8.70
2019-02-28T03:17:14.227Z,8.63
2019-02-28T03:19:41.227Z,8.20
2019-02-28T03:22:08.175Z,9.87
2019-02-28T03:24:35.074Z,9.27
2019-02-28T03:27:02.037Z,8.63
2019-02-28T03:29:28.956Z,9.47
2019-02-28T03:31:59.140Z,8.70
2019-02-28T03:34:22.827Z,9.40
2019-02-28T03:36:55.318Z,8.00
2019-02-28T03:39:16.741Z,9.40
2019-02-28T03:41:43.629Z,8.97
2019-02-28T03:44:10.815Z,9.80
2019-02-28T03:46:37.734Z,9.47
2019-02-28T03:49:10.872Z,9.27
2019-02-28T03:51:31.692Z,10.23
2019-02-28T03:53:58.672Z,9.33
2019-02-28T03:56:25.707Z,8.90
2019-02-28T03:58:52.698Z,10.27
2019-02-28T04:01:19.661Z,8.83
2019-02-28T04:03:46.635Z,8.83
2019-02-28T04:06:13.615Z,10.27
2019-02-28T04:08:40.552Z,10.20
2019-02-28T04:11:07.563Z,9.33
2019-02-28T04:13:34.565Z,9.87
2019-02-28T04:16:08.632Z,10.07
2019-02-28T04:18:28.466Z,9.57
2019-02-28T04:20:55.385Z,9.70
2019-02-28T04:23:22.294Z,9.20
2019-02-28T04:25:49.248Z,9.97
2019-02-28T04:28:18.620Z,10.13
2019-02-28T04:30:44.104Z,10.13
2019-02-28T04:33:10.108Z,10.13
2019-02-28T04:35:37.107Z,10.80
2019-02-28T04:38:03.960Z,10.87
2019-02-28T04:40:30.883Z,10.87
2019-02-28T04:42:57.801Z,11.77
2019-02-28T04:45:26.129Z,10.60
2019-02-28T04:47:51.771Z,12.43
2019-02-28T04:50:18.670Z,13.07
2019-02-28T04:52:48.006Z,11.17
2019-02-28T04:55:12.527Z,11.63
2019-02-28T04:57:39.446Z,12.03
2019-02-28T05:00:07.251Z,12.27
2019-02-28T05:02:34.282Z,13.20
2019-02-28T05:05:01.362Z,13.07
2019-02-28T05:07:29.612Z,11.67
2019-02-28T05:09:55.218Z,13.30
2019-02-28T05:12:22.132Z,14.00
2019-02-28T05:14:49.104Z,13.63
2019-02-28T05:17:16.110Z,13.60
2019-02-28T05:19:43.122Z,14.83
2019-02-28T05:22:10.063Z,13.27
2019-02-28T05:24:39.500Z,14.17
2019-02-28T05:27:03.959Z,13.80
2019-02-28T05:29:30.887Z,14.03
2019-02-28T05:31:58.111Z,14.47
2019-02-28T05:34:24.869Z,14.57
2019-02-28T05:36:51.925Z,14.73
2019-02-28T05:39:18.862Z,14.47
2019-02-28T05:41:48.991Z,14.93
2019-02-28T05:44:13.003Z,14.67
2019-02-28T05:46:40.009Z,14.53
2019-02-28T05:49:08.770Z,15.17
2019-02-28T05:51:34.074Z,22.00
2019-02-28T05:54:01.024Z,24.90
2019-02-28T05:56:32.782Z,48.57
2019-02-28T05:58:54.874Z,36.87
2019-02-28T06:01:21.841Z,23.70
2019-02-28T06:03:48.814Z,20.70
2019-02-28T06:06:17.281Z,18.70
2019-02-28T06:08:42.847Z,20.70
2019-02-28T06:11:09.818Z,21.47
2019-02-28T06:13:37.178Z,23.13
2019-02-28T06:16:03.907Z,24.47
2019-02-28T06:18:33.270Z,23.10
2019-02-28T06:20:57.917Z,22.73
2019-02-28T06:23:24.910Z,23.53
2019-02-28T06:25:51.987Z,22.80
2019-02-28T06:28:19.329Z,27.60
2019-02-28T06:30:46.316Z,26.73
2019-02-28T06:33:13.267Z,31.87
2019-02-28T06:35:40.246Z,22.03
2019-02-28T06:38:07.193Z,24.80
2019-02-28T06:40:34.562Z,24.77
2019-02-28T06:43:01.515Z,24.20
2019-02-28T06:45:28.449Z,21.37
2019-02-28T06:47:55.434Z,22.70
2019-02-28T06:50:22.448Z,22.00
2019-02-28T06:52:49.660Z,22.17
2019-02-28T06:55:20.485Z,19.87
2019-02-28T06:57:47.465Z,19.33
2019-02-28T07:00:14.580Z,21.47
2019-02-28T07:02:41.545Z,20.63
2019-02-28T07:05:08.586Z,20.37
2019-02-28T07:07:36.218Z,20.57
2019-02-28T07:10:06.142Z,24.97
2019-02-28T07:12:33.041Z,21.43
2019-02-28T07:14:58.220Z,23.13
2019-02-28T07:17:25.107Z,11.20
2019-02-28T07:19:52.060Z,16.87
2019-02-28T07:22:19.677Z,17.97
2019-02-28T07:24:45.888Z,18.83
2019-02-28T07:27:12.789Z,18.83
2019-02-28T07:29:42.743Z,19.53
2019-02-28T07:32:06.692Z,21.83
2019-02-28T07:34:33.573Z,20.10
2019-02-28T07:37:00.475Z,19.53
2019-02-28T07:39:27.467Z,24.50
2019-02-28T07:41:54.482Z,25.23
2019-02-28T07:44:22.394Z,24.67
2019-02-28T07:46:48.831Z,24.80
2019-02-28T07:49:15.843Z,23.87
2019-02-28T07:51:42.829Z,23.57
2019-02-28T07:54:12.588Z,25.80
2019-02-28T07:56:42.729Z,23.93
2019-02-28T07:59:05.351Z,22.97
2019-02-28T08:06:26.074Z,23.47
2019-02-28T08:08:53.052Z,25.77
2019-02-28T08:11:20.821Z,25.87
2019-02-28T08:13:47.114Z,24.67
2019-02-28T08:16:14.091Z,25.17
2019-02-28T08:18:41.099Z,25.40
2019-02-28T08:21:08.694Z,27.33
2019-02-28T08:23:35.137Z,26.37
2019-02-28T08:26:02.208Z,26.73
2019-02-28T08:28:35.821Z,28.00
2019-02-28T08:30:56.857Z,27.13
2019-02-28T08:33:23.835Z,28.20
2019-02-28T08:35:50.917Z,27.47
2019-02-28T08:39:21.383Z,28.10
2019-02-28T08:41:49.629Z,27.03
2019-02-28T08:44:15.416Z,28.10
2019-02-28T08:46:43.513Z,27.40
2019-02-28T08:49:09.832Z,27.83
2019-02-28T08:51:37.123Z,28.60
2019-02-28T08:54:06.047Z,27.97
2019-02-28T08:56:32.300Z,28.57
2019-02-28T08:58:58.470Z,26.53
2019-02-28T09:01:25.448Z,25.40
2019-02-28T09:03:52.483Z,26.87
2019-02-28T09:06:19.415Z,27.37
2019-02-28T09:08:46.404Z,28.67
2019-02-28T09:11:13.602Z,27.67
2019-02-28T09:13:42.992Z,29.17
2019-02-28T09:16:07.587Z,29.33
2019-02-28T09:18:34.549Z,26.50
2019-02-28T09:21:01.498Z,28.53
2019-02-28T09:23:28.575Z,27.67
2019-02-28T09:25:56.688Z,27.27
2019-02-28T09:28:22.582Z,29.00
2019-02-28T09:30:50.936Z,27.30
2019-02-28T09:33:19.398Z,27.73
2019-02-28T09:35:46.445Z,26.80
2019-02-28T09:38:13.576Z,28.10
2019-02-28T09:40:41.197Z,28.13
2019-02-28T09:43:06.553Z,27.63
2019-02-28T09:45:33.554Z,27.73
2019-02-28T09:48:02.015Z,26.90
2019-02-28T09:50:27.711Z,26.03
2019-02-28T09:52:54.725Z,27.03
2019-02-28T09:55:21.714Z,26.47
2019-02-28T09:57:53.673Z,27.70
2019-02-28T10:00:16.813Z,26.47
2019-02-28T10:02:45.063Z,25.70
2019-02-28T10:05:11.742Z,28.67
2019-02-28T10:07:37.977Z,27.27
2019-02-28T10:10:07.144Z,27.07
2019-02-28T10:12:34.098Z,28.33
2019-02-28T10:15:07.147Z,28.27
2019-02-28T10:17:29.064Z,27.37
2019-02-28T10:19:55.323Z,26.87
2019-02-28T10:22:22.379Z,27.23
2019-02-28T10:24:49.999Z,27.20
2019-02-28T10:27:17.072Z,26.13
2019-02-28T10:29:44.064Z,26.13
2019-02-28T10:32:11.091Z,25.27
2019-02-28T10:34:38.057Z,27.73
2019-02-28T10:37:05.085Z,28.17
2019-02-28T10:39:32.255Z,28.57
2019-02-28T10:42:01.559Z,28.53
2019-02-28T10:44:30.308Z,27.83
2019-02-28T10:46:53.781Z,27.20
2019-02-28T10:49:21.035Z,28.07
2019-02-28T10:51:49.673Z,27.57
2019-02-28T10:54:15.416Z,25.63
2019-02-28T10:56:41.883Z,27.50
2019-02-28T10:59:08.972Z,28.57
2019-02-28T11:01:35.973Z,26.77
2019-02-28T11:04:04.460Z,26.77
2019-02-28T11:06:30.120Z,27.60
2019-02-28T11:08:57.202Z,24.63
2019-02-28T11:11:24.200Z,25.00
2019-02-28T11:13:51.300Z,29.23
2019-02-28T11:16:20.480Z,28.37
2019-02-28T11:18:45.700Z,30.33
2019-02-28T11:21:12.838Z,26.53
2019-02-28T11:23:39.863Z,34.17
2019-02-28T11:26:09.623Z,27.63
2019-02-28T11:28:34.250Z,25.63
2019-02-28T11:31:01.357Z,27.93
2019-02-28T11:33:28.404Z,26.10
2019-02-28T11:35:59.156Z,25.97
2019-02-28T11:38:22.417Z,26.97
2019-02-28T11:40:57.031Z,25.03
2019-02-28T11:43:16.650Z,24.63
2019-02-28T11:45:43.805Z,23.93
2019-02-28T11:48:12.842Z,24.50
2019-02-28T11:50:42.545Z,26.07
2019-02-28T11:53:06.284Z,27.07
2019-02-28T11:55:33.379Z,25.50
2019-02-28T11:58:00.540Z,27.27
2019-02-28T12:00:28.516Z,25.80
2019-02-28T12:02:59.733Z,26.23
2019-02-28T12:05:23.702Z,25.93
2019-02-28T12:07:51.338Z,27.10
2019-02-28T12:10:18.392Z,26.67
2019-02-28T12:12:45.471Z,26.43
2019-02-28T12:15:13.302Z,27.27
2019-02-28T12:17:40.394Z,27.10
2019-02-28T12:20:09.016Z,27.60
2019-02-28T12:22:36.067Z,25.17
2019-02-28T12:25:04.580Z,25.50
2019-02-28T12:27:30.896Z,25.60
2019-02-28T12:29:57.885Z,26.03
2019-02-28T12:32:24.880Z,58.40
2019-02-28T12:34:52.035Z,30.30
2019-02-28T12:37:22.125Z,25.30
2019-02-28T12:39:46.203Z,28.80
2019-02-28T12:42:13.301Z,28.10
2019-02-28T12:44:40.286Z,25.60
2019-02-28T12:47:07.439Z,82.20
2019-02-28T12:49:34.408Z,28.40
2019-02-28T12:52:01.398Z,26.67
2019-02-28T12:54:30.320Z,55.67
2019-02-28T12:56:55.424Z,53.57
2019-02-28T12:59:22.400Z,28.57
2019-02-28T13:01:49.413Z,30.50
2019-02-28T13:04:16.436Z,27.27
2019-02-28T13:06:43.444Z,26.50
2019-02-28T13:09:13.696Z,25.47
2019-02-28T13:11:38.081Z,24.93
2019-02-28T13:14:06.470Z,24.53
2019-02-28T13:16:32.157Z,25.37
2019-02-28T13:18:59.110Z,24.27
2019-02-28T13:26:21.583Z,25.27
2019-02-28T13:28:48.615Z,24.60
2019-02-28T13:31:15.601Z,26.70
2019-02-28T13:33:42.578Z,26.00
2019-02-28T13:36:09.589Z,27.20
2019-02-28T13:38:36.555Z,27.17
2019-02-28T13:41:03.572Z,26.20
2019-02-28T13:43:31.985Z,25.70
2019-02-28T13:45:57.582Z,27.13
2019-02-28T13:48:26.384Z,25.27
2019-02-28T13:50:51.543Z,24.37
2019-02-28T13:53:18.935Z,25.23
2019-02-28T13:55:45.589Z,28.33
2019-02-28T13:58:12.690Z,25.80
2019-02-28T14:00:44.432Z,26.17
2019-02-28T14:03:09.479Z,25.27
2019-02-28T14:05:38.504Z,26.30
2019-02-28T14:08:01.142Z,28.97
2019-02-28T14:10:29.600Z,28.23
2019-02-28T14:12:57.125Z,24.80
2019-02-28T14:15:26.128Z,25.23
2019-02-28T14:17:53.257Z,26.07
2019-02-28T14:20:20.446Z,26.33
2019-02-28T14:22:47.468Z,26.07
2019-02-28T14:25:14.514Z,26.13
2019-02-28T14:27:41.580Z,28.70
2019-02-28T14:30:10.378Z,26.37
2019-02-28T14:32:38.665Z,27.30
2019-02-28T14:35:04.966Z,26.47
2019-02-28T14:37:31.918Z,27.60
2019-02-28T14:39:58.883Z,25.83
2019-02-28T14:42:25.884Z,25.20
2019-02-28T14:44:52.885Z,32.80
2019-02-28T14:47:19.855Z,27.93
2019-02-28T14:49:46.861Z,26.73
2019-02-28T14:52:14.395Z,26.57
2019-02-28T14:54:40.909Z,27.57
2019-02-28T14:57:07.955Z,25.50
2019-02-28T14:59:34.999Z,25.83
2019-02-28T15:02:02.069Z,26.63
2019-02-28T15:04:29.084Z,25.50
2019-02-28T15:06:56.215Z,27.20
2019-02-28T15:09:24.202Z,27.77
2019-02-28T15:11:50.204Z,25.50
2019-02-28T15:14:17.236Z,26.97
2019-02-28T15:16:44.368Z,29.90
2019-02-28T15:19:11.293Z,27.60
2019-02-28T15:21:42.377Z,28.93
2019-02-28T15:24:05.531Z,28.30
2019-02-28T15:26:33.167Z,28.03
2019-02-28T15:28:59.613Z,27.70
2019-02-28T15:31:26.594Z,26.97
2019-02-28T15:33:53.629Z,28.03
2019-02-28T15:36:20.876Z,28.37
2019-02-28T15:39:49.832Z,56.43
2019-02-28T15:42:16.332Z,28.30
2019-02-28T15:44:43.396Z,33.80
2019-02-28T15:47:10.417Z,29.67
2019-02-28T15:49:37.592Z,32.57
2019-02-28T15:52:05.112Z,31.50
2019-02-28T15:54:31.796Z,29.63
2019-02-28T15:57:00.874Z,38.87
2019-02-28T15:59:27.875Z,29.80
2019-02-28T16:01:54.903Z,29.83
2019-02-28T16:04:23.528Z,29.17
2019-02-28T16:06:56.628Z,29.63
2019-02-28T16:09:18.747Z,31.20
2019-02-28T16:11:43.743Z,29.10
2019-02-28T16:14:14.525Z,33.00
2019-02-28T16:16:37.802Z,33.23
2019-02-28T16:19:05.063Z,32.37
2019-02-28T16:21:32.153Z,31.03
2019-02-28T16:24:01.986Z,32.03
2019-02-28T16:26:26.316Z,30.93
2019-02-28T16:28:53.420Z,32.10
2019-02-28T16:31:20.493Z,30.60
2019-02-28T16:33:48.116Z,29.70
2019-02-28T16:36:15.943Z,30.03
2019-02-28T16:38:42.477Z,32.20
2019-02-28T16:41:27.581Z,31.60
2019-02-28T16:43:55.572Z,30.43
2019-02-28T16:46:21.712Z,31.03
2019-02-28T16:48:48.690Z,31.23
2019-02-28T16:51:15.714Z,30.17
2019-02-28T16:53:42.663Z,31.20
2019-02-28T16:56:09.712Z,29.73
2019-02-28T16:58:36.792Z,31.00
2019-02-28T17:01:03.830Z,31.00
2019-02-28T17:03:31.046Z,31.40
2019-02-28T17:05:58.405Z,30.13
2019-02-28T17:08:25.029Z,29.13
2019-02-28T17:10:52.118Z,31.10
2019-02-28T17:13:35.570Z,27.43
2019-02-28T17:16:10.171Z,30.13
2019-02-28T17:18:37.172Z,29.53
2019-02-28T17:21:04.344Z,30.60
2019-02-28T17:23:33.643Z,30.00
2019-02-28T17:25:59.177Z,28.50
2019-02-28T17:28:36.891Z,29.00
2019-02-28T17:31:12.533Z,27.57
2019-02-28T17:33:39.518Z,28.27
2019-02-28T17:36:08.375Z,28.67
2019-02-28T17:38:37.154Z,28.97
2019-02-28T17:41:01.991Z,30.83
2019-02-28T17:48:49.099Z,24.70
2019-02-28T17:51:25.864Z,27.27
2019-02-28T17:54:02.332Z,27.33
2019-02-28T17:56:37.541Z,26.47
2019-02-28T17:59:28.811Z,26.30
2019-02-28T18:02:08.176Z,26.43
2019-02-28T18:04:44.362Z,25.67
2019-02-28T18:08:20.580Z,25.90
2019-02-28T18:13:01.134Z,28.40
2019-02-28T18:15:34.863Z,27.40
2019-02-28T18:20:15.783Z,28.10
2019-02-28T18:23:28.027Z,24.00
2019-02-28T18:26:08.057Z,28.43
2019-02-28T18:30:52.108Z,25.87
2019-02-28T18:33:19.615Z,26.50
2019-02-28T18:35:46.297Z,27.20
2019-02-28T18:38:13.388Z,26.97
2019-02-28T18:40:41.221Z,27.57
2019-02-28T18:43:08.224Z,28.37
2019-02-28T18:45:35.254Z,26.50
2019-02-28T18:48:02.489Z,27.37
2019-02-28T18:50:29.474Z,27.60
2019-02-28T18:52:56.496Z,27.30
2019-02-28T18:55:23.545Z,28.43
2019-02-28T18:57:50.590Z,27.10
2019-02-28T19:00:18.059Z,27.30
2019-02-28T19:02:45.152Z,27.63
2019-02-28T19:05:12.030Z,26.97
2019-02-28T19:07:39.035Z,27.37
2019-02-28T19:10:06.776Z,27.17
2019-02-28T19:12:33.792Z,28.17
2019-02-28T19:15:00.854Z,29.50
2019-02-28T19:17:27.926Z,30.10
2019-02-28T19:19:55.213Z,29.10
2019-02-28T19:22:22.233Z,28.73
2019-02-28T19:24:49.309Z,30.53
2019-02-28T19:27:17.508Z,28.77
2019-02-28T19:29:44.784Z,30.80
2019-02-28T19:32:11.956Z,31.00
2019-02-28T19:34:38.963Z,30.50
2019-02-28T19:37:05.964Z,30.10
2019-02-28T19:39:33.723Z,28.43
2019-02-28T19:42:00.730Z,29.07
2019-02-28T19:44:27.698Z,29.40
2019-02-28T19:46:54.819Z,28.43
2019-02-28T19:49:21.915Z,29.53
2019-02-28T19:51:49.838Z,27.50
2019-02-28T19:54:16.979Z,29.60
2019-02-28T19:56:44.524Z,30.73
2019-02-28T19:59:13.555Z,28.57
2019-02-28T20:01:40.898Z,29.43
2019-02-28T20:04:08.969Z,29.90
2019-02-28T20:06:36.446Z,28.90
2019-02-28T20:09:04.821Z,29.17
2019-02-28T20:11:31.983Z,28.27
2019-02-28T20:13:59.179Z,28.87
2019-02-28T20:16:26.251Z,31.83
2019-02-28T20:18:53.937Z,29.63
2019-02-28T20:21:21.790Z,30.63
2019-02-28T20:23:49.646Z,29.30
2019-02-28T20:26:17.612Z,29.93
2019-02-28T20:28:44.769Z,29.20
2019-02-28T20:31:12.318Z,30.73
2019-02-28T20:33:39.986Z,30.07
2019-02-28T20:36:07.904Z,31.57
2019-02-28T20:38:34.991Z,30.00
2019-02-28T20:41:03.085Z,31.70
2019-02-28T20:43:31.341Z,52.30
2019-02-28T20:45:58.453Z,31.10
2019-02-28T20:48:26.039Z,30.10
2019-02-28T20:50:53.541Z,29.97
2019-02-28T20:53:21.013Z,30.57
2019-02-28T20:55:48.459Z,28.57
2019-02-28T20:58:16.376Z,33.03
2019-02-28T21:00:43.470Z,29.43
2019-02-28T21:03:12.053Z,29.90
2019-02-28T21:05:39.090Z,30.50
2019-02-28T21:08:08.570Z,29.60
2019-02-28T21:10:35.754Z,28.33
2019-02-28T21:13:03.509Z,29.23
2019-02-28T21:15:30.682Z,29.77
2019-02-28T21:17:57.796Z,28.77
2019-02-28T21:20:25.610Z,29.27
2019-02-28T21:22:52.727Z,26.30
2019-02-28T21:25:20.449Z,27.70
2019-02-28T21:27:49.161Z,24.67
2019-02-28T21:30:18.161Z,29.03
2019-02-28T21:32:46.141Z,26.50
2019-02-28T21:35:13.760Z,25.70
2019-02-28T21:37:41.724Z,26.47
2019-02-28T21:40:09.671Z,27.10
2019-02-28T21:42:37.451Z,24.80
2019-02-28T21:45:06.585Z,24.90
2019-02-28T21:47:33.667Z,24.23
2019-02-28T21:50:01.313Z,23.00
2019-02-28T21:52:28.970Z,24.23
2019-02-28T21:54:56.007Z,23.67
2019-02-28T21:57:23.052Z,24.73
2019-02-28T21:59:50.095Z,23.70
2019-02-28T22:02:18.690Z,23.10
2019-02-28T22:04:44.168Z,22.63
2019-02-28T22:07:11.154Z,22.63
2019-02-28T22:09:38.361Z,21.43
2019-02-28T22:12:06.070Z,22.10
2019-02-28T22:14:33.157Z,21.30
2019-02-28T22:17:00.145Z,21.77
2019-02-28T22:19:27.186Z,21.83
2019-02-28T22:21:54.160Z,22.13
2019-02-28T22:24:21.157Z,22.07
2019-02-28T22:26:48.113Z,20.90
2019-02-28T22:29:15.204Z,21.90
2019-02-28T22:31:55.721Z,20.53
2019-02-28T22:34:31.394Z,20.90
2019-02-28T22:36:58.439Z,23.53
2019-02-28T22:39:25.586Z,21.00
2019-02-28T22:41:52.638Z,20.60
2019-02-28T22:44:20.060Z,20.13
2019-02-28T22:46:47.096Z,20.03
2019-02-28T22:49:14.467Z,20.70
2019-02-28T22:51:41.572Z,20.07
2019-02-28T22:54:08.493Z,20.03
2019-02-28T22:56:35.470Z,19.77
2019-02-28T22:59:02.457Z,20.83
2019-02-28T23:01:29.442Z,18.90
2019-02-28T23:03:56.464Z,20.07
2019-02-28T23:06:23.438Z,22.00
2019-02-28T23:08:50.451Z,20.07
2019-02-28T23:11:17.471Z,22.10
2019-02-28T23:13:44.865Z,21.80
2019-02-28T23:16:12.277Z,21.53
2019-02-28T23:18:39.292Z,21.50
2019-02-28T23:21:06.220Z,19.13
2019-02-28T23:23:33.167Z,18.27
2019-02-28T23:26:06.532Z,19.03
2019-02-28T23:28:35.200Z,19.97
2019-02-28T23:31:43.802Z,17.80
2019-02-28T23:34:16.416Z,19.77
2019-02-28T23:36:43.350Z,19.37
2019-02-28T23:39:10.303Z,19.00
2019-02-28T23:41:37.263Z,18.53
2019-02-28T23:44:04.230Z,19.37
2019-02-28T23:46:31.144Z,18.90
2019-02-28T23:48:58.058Z,19.97
2019-02-28T23:51:24.992Z,19.40
2019-02-28T23:53:52.053Z,18.03
2019-02-28T23:56:18.977Z,20.67
2019-02-28T23:58:45.971Z,18.53
